createdAt,value
2017-02-19T00:00:05.199Z,22.6
2017-02-19T00:01:14.215Z,22.58
2017-02-19T00:02:23.222Z,22.6
2017-02-19T00:03:32.265Z,22.53
2017-02-19T00:04:41.703Z,22.49
2017-02-19T00:05:50.728Z,22.42
2017-02-19T00:06:59.765Z,22.46
2017-02-19T00:08:09.190Z,22.34
2017-02-19T00:09:18.219Z,22.35
2017-02-19T00:10:27.228Z,22.36
2017-02-19T00:11:36.271Z,22.31
2017-02-19T00:12:45.291Z,22.24
2017-02-19T00:13:54.312Z,22.16
2017-02-19T00:15:03.360Z,22.16
2017-02-19T00:16:12.372Z,22.08
2017-02-19T00:17:21.396Z,22.08
2017-02-19T00:18:30.425Z,21.96
2017-02-19T00:19:39.424Z,22.06
2017-02-19T00:20:48.433Z,21.95
2017-02-19T00:21:57.458Z,21.86
2017-02-19T00:23:06.491Z,21.89
2017-02-19T00:24:15.516Z,21.71
2017-02-19T00:25:24.533Z,21.67
2017-02-19T00:26:33.556Z,21.78
2017-02-19T00:27:42.579Z,21.73
2017-02-19T00:28:51.591Z,21.67
2017-02-19T00:30:00.606Z,21.67
2017-02-19T00:31:09.627Z,21.6
2017-02-19T00:32:18.652Z,21.63
2017-02-19T00:33:27.683Z,21.48
2017-02-19T00:34:36.696Z,21.46
2017-02-19T00:35:45.755Z,21.54
2017-02-19T00:36:54.768Z,21.48
2017-02-19T00:38:04.208Z,21.54
2017-02-19T00:39:13.226Z,21.49
2017-02-19T00:40:22.255Z,21.43
2017-02-19T00:41:31.259Z,21.4
2017-02-19T00:42:40.284Z,21.38
2017-02-19T00:43:49.712Z,21.42
2017-02-19T00:44:58.723Z,21.39
2017-02-19T00:46:07.739Z,21.46
2017-02-19T00:47:16.766Z,21.46
2017-02-19T00:48:25.785Z,21.5
2017-02-19T00:49:34.819Z,21.58
2017-02-19T00:50:43.826Z,21.49
2017-02-19T00:51:53.107Z,21.52
2017-02-19T00:53:02.228Z,21.55
2017-02-19T00:54:11.266Z,21.5
2017-02-19T00:55:20.293Z,21.54
2017-02-19T00:56:29.312Z,21.55
2017-02-19T00:57:38.335Z,21.49
2017-02-19T00:58:47.350Z,21.48
2017-02-19T00:59:56.380Z,21.43
2017-02-19T01:01:05.403Z,21.39
2017-02-19T01:02:14.418Z,21.4
2017-02-19T01:03:23.442Z,21.36
2017-02-19T01:04:32.870Z,21.39
2017-02-19T01:05:41.940Z,21.39
2017-02-19T01:06:50.998Z,21.42
2017-02-19T01:08:00.031Z,21.38
2017-02-19T01:09:09.447Z,21.36
2017-02-19T01:10:18.510Z,21.27
2017-02-19T01:11:27.529Z,21.34
2017-02-19T01:12:36.552Z,21.33
2017-02-19T01:13:45.577Z,21.4
2017-02-19T01:14:54.612Z,21.33
2017-02-19T01:16:03.666Z,21.34
2017-02-19T01:17:12.749Z,21.38
2017-02-19T01:18:22.495Z,21.34
2017-02-19T01:19:31.666Z,21.48
2017-02-19T01:20:41.609Z,21.42
2017-02-19T01:21:50.637Z,21.27
2017-02-19T01:22:59.691Z,21.24
2017-02-19T01:24:08.930Z,21.31
2017-02-19T01:25:18.010Z,21.33
2017-02-19T01:26:27.243Z,21.23
2017-02-19T01:27:36.831Z,21.23
2017-02-19T01:28:45.933Z,21.28
2017-02-19T01:29:55.116Z,21.27
2017-02-19T01:31:04.550Z,21.23
2017-02-19T01:32:14.039Z,21.21
2017-02-19T01:33:23.199Z,21.12
2017-02-19T01:34:32.679Z,21.18
2017-02-19T01:35:41.707Z,21.13
2017-02-19T01:36:50.737Z,21.08
2017-02-19T01:37:59.754Z,20.91
2017-02-19T01:39:08.769Z,20.54
2017-02-19T01:40:17.769Z,20.24
2017-02-19T01:41:26.791Z,19.87
2017-02-19T01:42:35.815Z,19.77
2017-02-19T01:43:44.815Z,19.42
2017-02-19T01:44:53.830Z,19.27
2017-02-19T01:46:02.847Z,19.2
2017-02-19T01:47:11.922Z,18.97
2017-02-19T01:48:20.943Z,18.97
2017-02-19T01:49:29.984Z,18.8
2017-02-19T01:50:38.999Z,18.68
2017-02-19T01:51:47.997Z,18.8
2017-02-19T01:52:57.084Z,18.69
2017-02-19T01:54:06.108Z,18.43
2017-02-19T01:55:15.139Z,18.36
2017-02-19T01:56:24.169Z,18.29
2017-02-19T01:57:33.188Z,18.34
2017-02-19T01:58:42.213Z,18.22
2017-02-19T01:59:51.226Z,18.14
2017-02-19T02:01:00.248Z,17.99
2017-02-19T02:02:09.280Z,17.92
2017-02-19T02:03:18.331Z,17.92
2017-02-19T02:04:27.344Z,17.89
2017-02-19T02:05:36.360Z,17.79
2017-02-19T02:06:45.395Z,17.74
2017-02-19T02:07:54.436Z,17.57
2017-02-19T02:09:03.459Z,17.62
2017-02-19T02:10:12.473Z,17.7
2017-02-19T02:11:21.482Z,17.55
2017-02-19T02:12:30.495Z,17.47
2017-02-19T02:13:39.523Z,17.3
2017-02-19T02:14:48.556Z,17.2
2017-02-19T02:15:57.601Z,17.28
2017-02-19T02:17:06.625Z,17.14
2017-02-19T02:18:15.633Z,17.02
2017-02-19T02:19:24.651Z,16.96
2017-02-19T02:20:33.680Z,17.02
2017-02-19T02:21:42.691Z,17
2017-02-19T02:22:51.714Z,16.9
2017-02-19T02:24:00.752Z,16.9
2017-02-19T02:25:09.758Z,16.92
2017-02-19T02:26:18.750Z,16.82
2017-02-19T02:27:27.764Z,16.77
2017-02-19T02:28:36.791Z,16.78
2017-02-19T02:29:45.806Z,16.66
2017-02-19T02:30:55.219Z,16.62
2017-02-19T02:32:04.252Z,16.62
2017-02-19T02:33:13.291Z,16.59
2017-02-19T02:34:22.314Z,16.55
2017-02-19T02:35:31.348Z,16.42
2017-02-19T02:36:40.357Z,16.78
2017-02-19T02:37:49.367Z,16.74
2017-02-19T02:38:58.782Z,16.6
2017-02-19T02:40:07.802Z,16.44
2017-02-19T02:41:17.222Z,16.44
2017-02-19T02:42:26.248Z,16.4
2017-02-19T02:43:35.277Z,16.38
2017-02-19T02:44:44.710Z,16.41
2017-02-19T02:45:53.730Z,16.47
2017-02-19T02:47:02.762Z,16.48
2017-02-19T02:48:11.803Z,16.48
2017-02-19T02:49:20.822Z,16.42
2017-02-19T02:50:29.899Z,16.37
2017-02-19T02:51:38.915Z,16.38
2017-02-19T02:52:47.938Z,16.37
2017-02-19T02:53:56.950Z,16.34
2017-02-19T02:55:06.827Z,16.35
2017-02-19T02:56:15.850Z,16.37
2017-02-19T02:57:24.875Z,16.29
2017-02-19T02:58:33.891Z,16.3
2017-02-19T02:59:42.912Z,16.29
2017-02-19T03:00:51.946Z,16.22
2017-02-19T03:02:00.970Z,16.27
2017-02-19T03:03:09.980Z,16.25
2017-02-19T03:04:18.997Z,16.27
2017-02-19T03:05:28.009Z,16.2
2017-02-19T03:06:37.052Z,16.1
2017-02-19T03:07:46.092Z,16.09
2017-02-19T03:08:55.099Z,16.01
2017-02-19T03:10:04.565Z,16
2017-02-19T03:11:13.566Z,15.96
2017-02-19T03:12:22.588Z,16.01
2017-02-19T03:13:31.592Z,15.88
2017-02-19T03:14:40.619Z,15.99
2017-02-19T03:15:49.633Z,15.86
2017-02-19T03:16:58.652Z,15.86
2017-02-19T03:18:07.655Z,15.82
2017-02-19T03:19:16.728Z,15.79
2017-02-19T03:20:25.776Z,15.79
2017-02-19T03:21:34.788Z,15.82
2017-02-19T03:22:43.817Z,15.7
2017-02-19T03:23:52.856Z,15.76
2017-02-19T03:25:01.870Z,15.66
2017-02-19T03:26:11.317Z,15.61
2017-02-19T03:27:20.335Z,15.66
2017-02-19T03:28:29.372Z,15.64
2017-02-19T03:29:38.384Z,15.56
2017-02-19T03:30:47.388Z,15.56
2017-02-19T03:31:56.401Z,15.52
2017-02-19T03:33:05.417Z,15.63
2017-02-19T03:34:14.838Z,15.52
2017-02-19T03:35:23.845Z,15.53
2017-02-19T03:36:32.860Z,15.52
2017-02-19T03:37:41.906Z,15.51
2017-02-19T03:38:51.342Z,15.55
2017-02-19T03:40:00.369Z,15.53
2017-02-19T03:41:09.374Z,15.41
2017-02-19T03:42:18.375Z,15.52
2017-02-19T03:43:27.809Z,15.45
2017-02-19T03:44:36.847Z,15.37
2017-02-19T03:45:45.859Z,15.44
2017-02-19T03:46:54.864Z,15.42
2017-02-19T03:48:04.726Z,15.38
2017-02-19T03:49:13.769Z,15.36
2017-02-19T03:50:22.804Z,15.45
2017-02-19T03:51:31.829Z,15.41
2017-02-19T03:52:41.258Z,15.38
2017-02-19T03:53:50.591Z,15.33
2017-02-19T03:54:59.626Z,15.24
2017-02-19T03:56:09.050Z,15.23
2017-02-19T03:57:18.065Z,15.15
2017-02-19T03:58:27.079Z,15.21
2017-02-19T03:59:36.124Z,15.34
2017-02-19T04:00:45.155Z,15.27
2017-02-19T04:01:54.169Z,15.27
2017-02-19T04:03:03.601Z,15.16
2017-02-19T04:04:12.618Z,15.09
2017-02-19T04:05:21.643Z,15.06
2017-02-19T04:06:30.691Z,15.06
2017-02-19T04:07:39.712Z,15.08
2017-02-19T04:08:48.722Z,15.11
2017-02-19T04:09:57.723Z,15.04
2017-02-19T04:11:07.158Z,15.04
2017-02-19T04:12:16.198Z,15.01
2017-02-19T04:13:25.197Z,15.04
2017-02-19T04:14:34.223Z,14.98
2017-02-19T04:15:43.223Z,14.9
2017-02-19T04:16:52.242Z,14.93
2017-02-19T04:18:01.663Z,14.86
2017-02-19T04:19:10.708Z,14.8
2017-02-19T04:20:20.149Z,14.87
2017-02-19T04:21:29.143Z,14.88
2017-02-19T04:22:38.220Z,14.78
2017-02-19T04:23:47.230Z,14.78
2017-02-19T04:24:56.246Z,14.91
2017-02-19T04:26:05.251Z,14.9
2017-02-19T04:27:14.266Z,14.84
2017-02-19T04:28:23.276Z,14.8
2017-02-19T04:29:32.710Z,14.79
2017-02-19T04:30:41.728Z,14.79
2017-02-19T04:31:50.748Z,14.68
2017-02-19T04:32:59.763Z,14.71
2017-02-19T04:34:08.782Z,14.71
2017-02-19T04:35:17.801Z,14.62
2017-02-19T04:36:26.814Z,14.68
2017-02-19T04:37:35.840Z,14.82
2017-02-19T04:38:44.864Z,14.84
2017-02-19T04:39:53.892Z,14.75
2017-02-19T04:41:02.912Z,14.63
2017-02-19T04:42:11.919Z,14.59
2017-02-19T04:43:20.932Z,14.59
2017-02-19T04:44:29.935Z,14.63
2017-02-19T04:45:38.947Z,14.74
2017-02-19T04:46:47.971Z,14.65
2017-02-19T04:47:56.973Z,14.57
2017-02-19T04:49:05.984Z,14.6
2017-02-19T04:50:14.988Z,14.63
2017-02-19T04:51:24.011Z,14.78
2017-02-19T04:52:33.054Z,14.7
2017-02-19T04:53:42.489Z,14.6
2017-02-19T04:54:51.487Z,14.63
2017-02-19T04:56:00.497Z,14.7
2017-02-19T04:57:09.505Z,14.63
2017-02-19T04:58:18.542Z,14.63
2017-02-19T04:59:27.548Z,14.56
2017-02-19T05:00:36.580Z,14.54
2017-02-19T05:01:45.599Z,14.57
2017-02-19T05:02:54.603Z,14.63
2017-02-19T05:04:03.615Z,14.5
2017-02-19T05:05:12.632Z,14.38
2017-02-19T05:06:21.631Z,14.5
2017-02-19T05:07:30.662Z,14.41
2017-02-19T05:08:39.674Z,14.54
2017-02-19T05:09:48.690Z,14.46
2017-02-19T05:10:57.692Z,14.42
2017-02-19T05:12:06.712Z,14.49
2017-02-19T05:13:15.726Z,14.38
2017-02-19T05:14:25.149Z,14.23
2017-02-19T05:15:34.173Z,14.38
2017-02-19T05:16:43.185Z,14.39
2017-02-19T05:17:52.214Z,14.35
2017-02-19T05:19:01.651Z,14.28
2017-02-19T05:20:10.666Z,14.3
2017-02-19T05:21:19.682Z,14.3
2017-02-19T05:22:28.710Z,14.38
2017-02-19T05:23:38.134Z,14.31
2017-02-19T05:24:47.153Z,14.3
2017-02-19T05:25:56.225Z,14.31
2017-02-19T05:27:05.222Z,14.31
2017-02-19T05:28:14.233Z,14.23
2017-02-19T05:29:23.239Z,14.31
2017-02-19T05:30:32.256Z,14.22
2017-02-19T05:31:41.697Z,14.22
2017-02-19T05:32:50.743Z,14.17
2017-02-19T05:33:59.771Z,14.22
2017-02-19T05:35:08.786Z,14.22
2017-02-19T05:36:17.818Z,14.04
2017-02-19T05:37:26.831Z,14.16
2017-02-19T05:38:35.834Z,14.13
2017-02-19T05:39:44.843Z,14.09
2017-02-19T05:40:53.851Z,14.12
2017-02-19T05:42:02.849Z,14.04
2017-02-19T05:43:11.871Z,14.19
2017-02-19T05:44:20.875Z,14.06
2017-02-19T05:45:29.901Z,14.22
2017-02-19T05:46:38.923Z,14.09
2017-02-19T05:47:47.944Z,14.04
2017-02-19T05:48:56.966Z,13.99
2017-02-19T05:50:05.975Z,13.97
2017-02-19T05:51:14.989Z,13.97
2017-02-19T05:52:24.004Z,14.04
2017-02-19T05:53:33.015Z,14.01
2017-02-19T05:54:42.089Z,13.99
2017-02-19T05:55:51.525Z,13.98
2017-02-19T05:57:00.521Z,14.02
2017-02-19T05:58:09.545Z,13.98
2017-02-19T05:59:19.023Z,13.99
2017-02-19T06:00:28.052Z,13.98
2017-02-19T06:01:37.072Z,14.01
2017-02-19T06:02:46.079Z,13.97
2017-02-19T06:03:55.109Z,14.01
2017-02-19T06:05:04.122Z,13.95
2017-02-19T06:06:13.121Z,13.98
2017-02-19T06:07:22.131Z,14.02
2017-02-19T06:08:31.144Z,13.97
2017-02-19T06:09:40.152Z,13.95
2017-02-19T06:10:49.164Z,13.97
2017-02-19T06:11:58.172Z,13.84
2017-02-19T06:13:07.189Z,13.92
2017-02-19T06:14:16.186Z,13.95
2017-02-19T06:15:25.192Z,13.91
2017-02-19T06:16:34.203Z,13.97
2017-02-19T06:17:43.199Z,13.87
2017-02-19T06:18:52.615Z,13.97
2017-02-19T06:20:02.043Z,14.01
2017-02-19T06:21:11.049Z,13.94
2017-02-19T06:22:20.095Z,13.84
2017-02-19T06:23:29.126Z,13.83
2017-02-19T06:24:38.170Z,13.79
2017-02-19T06:25:47.194Z,13.91
2017-02-19T06:26:56.218Z,13.81
2017-02-19T06:28:05.234Z,13.92
2017-02-19T06:29:14.251Z,13.91
2017-02-19T06:30:23.273Z,13.91
2017-02-19T06:31:32.286Z,13.83
2017-02-19T06:32:41.311Z,13.74
2017-02-19T06:33:50.344Z,13.79
2017-02-19T06:34:59.774Z,13.83
2017-02-19T06:36:08.787Z,13.86
2017-02-19T06:37:17.802Z,13.84
2017-02-19T06:38:26.798Z,13.83
2017-02-19T06:39:35.801Z,13.79
2017-02-19T06:40:44.816Z,13.81
2017-02-19T06:41:53.821Z,13.91
2017-02-19T06:43:02.851Z,13.89
2017-02-19T06:44:11.883Z,13.99
2017-02-19T06:45:20.883Z,13.81
2017-02-19T06:46:29.890Z,13.8
2017-02-19T06:47:38.906Z,13.69
2017-02-19T06:48:48.323Z,13.79
2017-02-19T06:49:57.355Z,13.83
2017-02-19T06:51:06.403Z,13.79
2017-02-19T06:52:15.395Z,13.91
2017-02-19T06:53:24.411Z,13.81
2017-02-19T06:54:33.421Z,13.83
2017-02-19T06:55:42.454Z,13.77
2017-02-19T06:56:51.456Z,13.83
2017-02-19T06:58:00.900Z,13.74
2017-02-19T06:59:09.910Z,13.72
2017-02-19T07:00:18.948Z,13.69
2017-02-19T07:01:27.958Z,13.65
2017-02-19T07:02:36.955Z,13.76
2017-02-19T07:03:45.967Z,13.76
2017-02-19T07:04:54.978Z,13.79
2017-02-19T07:06:04.002Z,13.8
2017-02-19T07:07:13.459Z,13.74
2017-02-19T07:08:22.483Z,13.72
2017-02-19T07:09:31.515Z,13.76
2017-02-19T07:10:40.528Z,13.79
2017-02-19T07:11:49.542Z,13.79
2017-02-19T07:12:58.581Z,13.76
2017-02-19T07:14:08.021Z,13.74
2017-02-19T07:15:17.043Z,13.74
2017-02-19T07:16:26.046Z,13.77
2017-02-19T07:17:35.089Z,13.74
2017-02-19T07:18:44.115Z,13.81
2017-02-19T07:19:53.124Z,13.87
2017-02-19T07:21:02.543Z,13.87
2017-02-19T07:22:11.558Z,13.8
2017-02-19T07:23:20.581Z,13.73
2017-02-19T07:24:29.591Z,13.77
2017-02-19T07:25:38.623Z,13.81
2017-02-19T07:26:47.636Z,13.87
2017-02-19T07:27:56.648Z,13.84
2017-02-19T07:29:05.680Z,13.83
2017-02-19T07:30:14.681Z,13.81
2017-02-19T07:31:23.685Z,13.86
2017-02-19T07:32:32.708Z,13.84
2017-02-19T07:33:41.733Z,13.89
2017-02-19T07:34:50.750Z,13.83
2017-02-19T07:35:59.772Z,13.91
2017-02-19T07:37:09.181Z,13.91
2017-02-19T07:38:18.226Z,13.8
2017-02-19T07:39:27.249Z,13.95
2017-02-19T07:40:36.255Z,13.86
2017-02-19T07:41:45.286Z,13.94
2017-02-19T07:42:54.305Z,13.95
2017-02-19T07:44:03.326Z,13.95
2017-02-19T07:45:12.335Z,14.05
2017-02-19T07:46:21.393Z,13.99
2017-02-19T07:47:30.388Z,13.91
2017-02-19T07:48:39.404Z,14.01
2017-02-19T07:49:48.419Z,13.97
2017-02-19T07:50:57.465Z,13.98
2017-02-19T07:52:06.500Z,13.95
2017-02-19T07:53:15.507Z,13.98
2017-02-19T07:54:24.534Z,13.98
2017-02-19T07:55:33.548Z,14.05
2017-02-19T07:56:43.054Z,13.98
2017-02-19T07:57:52.086Z,13.99
2017-02-19T07:59:01.098Z,13.95
2017-02-19T08:00:10.107Z,13.91
2017-02-19T08:01:19.105Z,13.94
2017-02-19T08:02:28.107Z,13.95
2017-02-19T08:03:37.142Z,13.94
2017-02-19T08:04:46.155Z,14.01
2017-02-19T08:05:55.186Z,13.95
2017-02-19T08:07:04.193Z,13.97
2017-02-19T08:08:13.196Z,13.94
2017-02-19T08:09:22.227Z,13.91
2017-02-19T08:10:31.656Z,13.94
2017-02-19T08:11:40.681Z,13.98
2017-02-19T08:12:49.680Z,13.99
2017-02-19T08:13:58.686Z,13.97
2017-02-19T08:15:07.690Z,14.01
2017-02-19T08:16:16.714Z,14.12
2017-02-19T08:17:25.722Z,13.99
2017-02-19T08:18:34.733Z,13.95
2017-02-19T08:19:43.750Z,13.97
2017-02-19T08:20:52.761Z,14.02
2017-02-19T08:22:01.764Z,13.94
2017-02-19T08:23:10.792Z,14.01
2017-02-19T08:24:19.803Z,13.99
2017-02-19T08:25:29.230Z,13.92
2017-02-19T08:26:38.262Z,14.05
2017-02-19T08:27:47.270Z,14.05
2017-02-19T08:28:56.268Z,14.01
2017-02-19T08:30:05.284Z,14.05
2017-02-19T08:31:14.302Z,14.06
2017-02-19T08:32:23.342Z,14.04
2017-02-19T08:33:32.353Z,14.06
2017-02-19T08:34:41.366Z,14.05
2017-02-19T08:35:50.413Z,14.06
2017-02-19T08:36:59.416Z,14.12
2017-02-19T08:38:08.836Z,14.06
2017-02-19T08:39:17.854Z,14.09
2017-02-19T08:40:26.843Z,14.04
2017-02-19T08:41:35.876Z,14.17
2017-02-19T08:42:45.297Z,14.26
2017-02-19T08:43:54.315Z,14.19
2017-02-19T08:45:03.317Z,14.17
2017-02-19T08:46:12.367Z,14.06
2017-02-19T08:47:21.376Z,14.05
2017-02-19T08:48:30.428Z,14.17
2017-02-19T08:49:39.451Z,14.12
2017-02-19T08:50:48.470Z,14.1
2017-02-19T08:51:57.475Z,14.23
2017-02-19T08:53:06.483Z,14.12
2017-02-19T08:54:15.487Z,14.17
2017-02-19T08:55:24.507Z,14.13
2017-02-19T08:56:33.514Z,14.16
2017-02-19T08:57:42.522Z,14.1
2017-02-19T08:58:51.535Z,14.19
2017-02-19T09:00:00.974Z,14.14
2017-02-19T09:01:10.404Z,14.12
2017-02-19T09:02:19.442Z,14.17
2017-02-19T09:03:28.462Z,14.09
2017-02-19T09:04:37.469Z,14.1
2017-02-19T09:05:46.493Z,13.97
2017-02-19T09:06:55.523Z,14.09
2017-02-19T09:08:04.538Z,14.02
2017-02-19T09:09:13.555Z,14.06
2017-02-19T09:10:22.570Z,14.02
2017-02-19T09:11:31.587Z,13.99
2017-02-19T09:12:40.600Z,13.97
2017-02-19T09:13:49.636Z,14.02
2017-02-19T09:14:58.647Z,14.05
2017-02-19T09:16:07.676Z,14.12
2017-02-19T09:17:16.695Z,14.01
2017-02-19T09:18:25.710Z,14.04
2017-02-19T09:19:34.712Z,14.04
2017-02-19T09:20:43.726Z,14.05
2017-02-19T09:21:52.748Z,14.09
2017-02-19T09:23:01.763Z,14.05
2017-02-19T09:24:10.768Z,14.06
2017-02-19T09:25:19.783Z,14.1
2017-02-19T09:26:28.793Z,14.06
2017-02-19T09:27:37.812Z,14.01
2017-02-19T09:28:46.806Z,14.12
2017-02-19T09:29:55.806Z,14.02
2017-02-19T09:31:04.849Z,14.09
2017-02-19T09:32:13.868Z,14.13
2017-02-19T09:33:22.892Z,14.06
2017-02-19T09:34:31.910Z,14.09
2017-02-19T09:35:40.927Z,14.05
2017-02-19T09:36:50.387Z,14.06
2017-02-19T09:37:59.831Z,14.12
2017-02-19T09:39:08.838Z,14.12
2017-02-19T09:40:18.295Z,14.1
2017-02-19T09:41:27.305Z,14.1
2017-02-19T09:42:36.310Z,14.16
2017-02-19T09:43:45.307Z,14.19
2017-02-19T09:44:54.333Z,14.09
2017-02-19T09:46:03.342Z,14.16
2017-02-19T09:47:12.376Z,14.12
2017-02-19T09:48:21.391Z,14.13
2017-02-19T09:49:30.402Z,14.1
2017-02-19T09:50:39.442Z,14.06
2017-02-19T09:51:48.449Z,14.05
2017-02-19T09:52:57.476Z,14.01
2017-02-19T09:54:06.517Z,14.05
2017-02-19T09:55:15.553Z,14.09
2017-02-19T09:56:24.610Z,14.2
2017-02-19T09:57:33.663Z,14.12
2017-02-19T09:58:42.681Z,14.01
2017-02-19T09:59:51.725Z,13.98
2017-02-19T10:01:00.738Z,13.99
2017-02-19T10:02:09.770Z,13.98
2017-02-19T10:03:18.787Z,14.05
2017-02-19T10:04:27.809Z,14.19
2017-02-19T10:05:36.823Z,14.12
2017-02-19T10:06:45.856Z,14.09
2017-02-19T10:07:54.849Z,14.1
2017-02-19T10:09:03.888Z,14.14
2017-02-19T10:10:12.897Z,13.99
2017-02-19T10:11:21.894Z,14.05
2017-02-19T10:12:30.926Z,14.01
2017-02-19T10:13:39.935Z,13.98
2017-02-19T10:14:48.953Z,14.01
2017-02-19T10:15:57.964Z,14.01
2017-02-19T10:17:06.978Z,14.09
2017-02-19T10:18:15.988Z,14.09
2017-02-19T10:19:24.998Z,14.05
2017-02-19T10:20:34.423Z,14.14
2017-02-19T10:21:43.437Z,14.1
2017-02-19T10:22:52.460Z,14.1
2017-02-19T10:24:01.469Z,14.1
2017-02-19T10:25:10.514Z,14.12
2017-02-19T10:26:19.535Z,14.23
2017-02-19T10:27:28.604Z,14.24
2017-02-19T10:28:37.631Z,14.2
2017-02-19T10:29:47.059Z,14.19
2017-02-19T10:30:56.100Z,14.19
2017-02-19T10:32:05.535Z,14.2
2017-02-19T10:33:14.546Z,14.22
2017-02-19T10:34:23.567Z,14.23
2017-02-19T10:35:32.624Z,14.23
2017-02-19T10:36:41.631Z,14.26
2017-02-19T10:37:50.670Z,14.22
2017-02-19T10:38:59.685Z,14.19
2017-02-19T10:40:08.713Z,14.2
2017-02-19T10:41:17.728Z,14.22
2017-02-19T10:42:26.738Z,14.19
2017-02-19T10:43:35.978Z,14.2
2017-02-19T10:44:45.474Z,14.1
2017-02-19T10:45:54.916Z,14.17
2017-02-19T10:47:03.926Z,14.19
2017-02-19T10:48:12.943Z,14.13
2017-02-19T10:49:21.954Z,14.1
2017-02-19T10:50:30.971Z,14.05
2017-02-19T10:51:39.993Z,14.12
2017-02-19T10:52:48.999Z,14.09
2017-02-19T10:53:57.995Z,14.06
2017-02-19T10:55:07.012Z,14.16
2017-02-19T10:56:16.028Z,14.09
2017-02-19T10:57:25.036Z,14.04
2017-02-19T10:58:34.055Z,14.13
2017-02-19T10:59:43.064Z,13.98
2017-02-19T11:00:52.069Z,13.98
2017-02-19T11:02:01.081Z,14.06
2017-02-19T11:03:10.094Z,13.98
2017-02-19T11:04:19.100Z,14.04
2017-02-19T11:05:28.123Z,14.02
2017-02-19T11:06:37.159Z,14.14
2017-02-19T11:07:46.176Z,14.42
2017-02-19T11:08:55.227Z,14.63
2017-02-19T11:10:04.649Z,14.78
2017-02-19T11:11:13.666Z,14.98
2017-02-19T11:12:22.729Z,15.08
2017-02-19T11:13:31.755Z,15.15
2017-02-19T11:14:40.773Z,15.42
2017-02-19T11:15:50.203Z,15.63
2017-02-19T11:17:01.401Z,15.79
2017-02-19T11:18:10.439Z,16.07
2017-02-19T11:19:19.470Z,16.11
2017-02-19T11:20:28.486Z,16.2
2017-02-19T11:21:37.507Z,16.32
2017-02-19T11:22:46.579Z,16.4
2017-02-19T11:23:55.591Z,16.38
2017-02-19T11:25:05.018Z,16.52
2017-02-19T11:26:14.039Z,16.58
2017-02-19T11:27:23.075Z,16.71
2017-02-19T11:28:32.458Z,16.77
2017-02-19T11:29:41.500Z,16.82
2017-02-19T11:30:50.537Z,16.81
2017-02-19T11:31:59.558Z,16.95
2017-02-19T11:33:08.572Z,16.96
2017-02-19T11:34:17.577Z,16.99
2017-02-19T11:35:27.023Z,17.1
2017-02-19T11:36:36.041Z,17.05
2017-02-19T11:37:45.067Z,17.11
2017-02-19T11:38:54.102Z,17.21
2017-02-19T11:40:03.118Z,17.24
2017-02-19T11:41:12.129Z,17.24
2017-02-19T11:42:21.160Z,17.32
2017-02-19T11:43:31.395Z,17.4
2017-02-19T11:44:42.647Z,17.58
2017-02-19T11:45:51.691Z,17.55
2017-02-19T11:47:00.730Z,17.64
2017-02-19T11:48:09.722Z,17.69
2017-02-19T11:49:18.741Z,17.77
2017-02-19T11:50:27.764Z,17.86
2017-02-19T11:51:36.766Z,17.84
2017-02-19T11:52:45.789Z,17.89
2017-02-19T11:53:54.822Z,17.91
2017-02-19T11:55:04.266Z,17.95
2017-02-19T11:56:13.292Z,17.84
2017-02-19T11:57:22.308Z,17.91
2017-02-19T11:58:31.331Z,17.98
2017-02-19T11:59:40.382Z,18.02
2017-02-19T12:00:49.401Z,18.17
2017-02-19T12:01:58.417Z,18.17
2017-02-19T12:03:07.447Z,18.17
2017-02-19T12:04:16.464Z,18.24
2017-02-19T12:05:25.477Z,18.24
2017-02-19T12:06:35.654Z,18.28
2017-02-19T12:07:44.678Z,18.39
2017-02-19T12:08:53.694Z,18.43
2017-02-19T12:10:02.773Z,18.53
2017-02-19T12:11:11.786Z,18.44
2017-02-19T12:12:22.108Z,18.57
2017-02-19T12:13:32.632Z,18.65
2017-02-19T12:14:44.494Z,18.71
2017-02-19T12:15:54.148Z,18.74
2017-02-19T12:17:03.937Z,18.76
2017-02-19T12:18:13.618Z,18.89
2017-02-19T12:19:24.635Z,18.91
2017-02-19T12:20:33.667Z,18.98
2017-02-19T12:21:43.098Z,18.94
2017-02-19T12:22:52.111Z,19.07
2017-02-19T12:24:01.549Z,19.02
2017-02-19T12:25:10.595Z,19.06
2017-02-19T12:26:19.633Z,19.06
2017-02-19T12:27:28.650Z,19.21
2017-02-19T12:28:37.680Z,19.12
2017-02-19T12:29:46.888Z,19.25
2017-02-19T12:30:55.947Z,19.33
2017-02-19T12:32:04.989Z,19.32
2017-02-19T12:33:14.003Z,19.35
2017-02-19T12:34:23.016Z,19.35
2017-02-19T12:35:32.039Z,19.42
2017-02-19T12:36:41.051Z,19.43
2017-02-19T12:37:50.066Z,19.46
2017-02-19T12:38:59.097Z,19.51
2017-02-19T12:40:08.523Z,19.61
2017-02-19T12:41:17.533Z,19.57
2017-02-19T12:42:26.578Z,19.62
2017-02-19T12:43:35.698Z,19.69
2017-02-19T12:44:44.727Z,19.77
2017-02-19T12:45:54.615Z,19.7
2017-02-19T12:47:03.630Z,19.75
2017-02-19T12:48:12.675Z,19.73
2017-02-19T12:49:21.697Z,19.82
2017-02-19T12:50:30.718Z,19.97
2017-02-19T12:51:39.740Z,19.87
2017-02-19T12:52:48.795Z,19.91
2017-02-19T12:53:57.835Z,19.83
2017-02-19T12:55:06.858Z,19.85
2017-02-19T12:56:15.883Z,20
2017-02-19T12:57:24.943Z,19.91
2017-02-19T12:58:34.914Z,20.06
2017-02-19T12:59:45.021Z,20.01
2017-02-19T13:00:54.208Z,20
2017-02-19T13:02:04.088Z,19.94
2017-02-19T13:03:13.106Z,20
2017-02-19T13:04:23.623Z,20.06
2017-02-19T13:05:32.796Z,20.07
2017-02-19T13:06:43.591Z,20.04
2017-02-19T13:07:52.607Z,20.16
2017-02-19T13:09:01.653Z,20.09
2017-02-19T13:10:10.695Z,20.19
2017-02-19T13:11:20.759Z,20.17
2017-02-19T13:12:29.840Z,20.13
2017-02-19T13:13:39.702Z,20.06
2017-02-19T13:14:48.784Z,20.16
2017-02-19T13:15:57.813Z,20.09
2017-02-19T13:17:06.837Z,20.19
2017-02-19T13:18:15.851Z,20.13
2017-02-19T13:19:25.983Z,20.16
2017-02-19T13:20:35.043Z,20.25
2017-02-19T13:21:44.073Z,20.12
2017-02-19T13:22:54.462Z,20.19
2017-02-19T13:24:03.978Z,20.22
2017-02-19T13:25:13.721Z,20.37
2017-02-19T13:26:22.748Z,20.31
2017-02-19T13:27:33.398Z,20.37
2017-02-19T13:28:45.513Z,20.43
2017-02-19T13:29:54.961Z,20.46
2017-02-19T13:31:03.975Z,20.47
2017-02-19T13:32:12.985Z,20.53
2017-02-19T13:33:21.988Z,20.57
2017-02-19T13:34:31.019Z,20.54
2017-02-19T13:35:40.449Z,20.6
2017-02-19T13:36:49.910Z,20.6
2017-02-19T13:37:58.929Z,20.63
2017-02-19T13:39:09.069Z,20.63
2017-02-19T13:40:18.098Z,20.65
2017-02-19T13:41:27.133Z,20.71
2017-02-19T13:42:36.137Z,20.71
2017-02-19T13:43:45.170Z,20.79
2017-02-19T13:44:54.201Z,20.87
2017-02-19T13:46:03.632Z,20.78
2017-02-19T13:47:12.657Z,20.81
2017-02-19T13:48:21.691Z,20.84
2017-02-19T13:49:30.707Z,20.84
2017-02-19T13:50:39.750Z,20.83
2017-02-19T13:51:48.799Z,20.93
2017-02-19T13:52:57.798Z,20.91
2017-02-19T13:54:06.818Z,20.93
2017-02-19T13:55:15.830Z,20.93
2017-02-19T13:56:24.877Z,20.91
2017-02-19T13:57:33.898Z,20.97
2017-02-19T13:58:42.906Z,20.91
2017-02-19T13:59:51.912Z,21.09
2017-02-19T14:01:01.026Z,20.97
2017-02-19T14:02:10.057Z,20.97
2017-02-19T14:03:19.073Z,21.1
2017-02-19T14:04:28.114Z,21.12
2017-02-19T14:05:37.212Z,21.08
2017-02-19T14:06:46.257Z,20.97
2017-02-19T14:07:55.289Z,21.12
2017-02-19T14:09:04.378Z,21.09
2017-02-19T14:10:13.395Z,21.2
2017-02-19T14:11:22.539Z,21.18
2017-02-19T14:12:31.585Z,21.08
2017-02-19T14:13:40.600Z,21.08
2017-02-19T14:14:50.038Z,21.06
2017-02-19T14:15:59.227Z,21.17
2017-02-19T14:17:08.644Z,21.08
2017-02-19T14:18:17.698Z,21.15
2017-02-19T14:19:27.577Z,21.1
2017-02-19T14:20:37.001Z,21.18
2017-02-19T14:21:46.444Z,21.13
2017-02-19T14:22:55.478Z,21.12
2017-02-19T14:24:04.531Z,21.12
2017-02-19T14:25:13.553Z,21.06
2017-02-19T14:26:22.578Z,21.17
2017-02-19T14:27:31.601Z,21.05
2017-02-19T14:28:40.640Z,21.05
2017-02-19T14:29:49.682Z,21.1
2017-02-19T14:30:58.685Z,21.17
2017-02-19T14:32:07.906Z,21.17
2017-02-19T14:33:16.937Z,21.2
2017-02-19T14:34:25.967Z,21.17
2017-02-19T14:35:35.007Z,21.24
2017-02-19T14:36:44.059Z,21.15
2017-02-19T14:37:55.324Z,21.21
2017-02-19T14:39:04.831Z,21.33
2017-02-19T14:40:14.505Z,21.39
2017-02-19T14:41:24.385Z,21.4
2017-02-19T14:42:33.552Z,21.43
2017-02-19T14:43:42.631Z,21.54
2017-02-19T14:44:51.657Z,21.43
2017-02-19T14:46:01.101Z,21.45
2017-02-19T14:47:10.153Z,21.49
2017-02-19T14:48:20.551Z,21.49
2017-02-19T14:49:29.839Z,21.52
2017-02-19T14:50:39.266Z,21.54
2017-02-19T14:51:48.646Z,21.46
2017-02-19T14:52:58.270Z,21.4